sensor_id;sensor_type;location;lat;lon;timestamp;pressure;altitude;pressure_sealevel;temperature;humidity
57708;BME280;43540;51.690;9.562;2023-11-21T00:02:22;98640.88;;;5.65;100.00
57708;BME280;43540;51.690;9.562;2023-11-21T00:04:49;98645.81;;;5.57;100.00
57708;BME280;43540;51.690;9.562;2023-11-21T00:07:16;98652.63;;;5.47;100.00
57708;BME280;43540;51.690;9.562;2023-11-21T00:09:43;98659.47;;;5.48;100.00
57708;BME280;43540;51.690;9.562;2023-11-21T00:12:20;98651.31;;;5.41;100.00
57708;BME280;43540;51.690;9.562;2023-11-21T00:14:49;98654.75;;;5.42;100.00
57708;BME280;43540;51.690;9.562;2023-11-21T00:17:16;98664.31;;;5.41;100.00
57708;BME280;43540;51.690;9.562;2023-11-21T00:19:43;98666.19;;;5.39;100.00
57708;BME280;43540;51.690;9.562;2023-11-21T00:22:10;98671.41;;;5.39;100.00
57708;BME280;43540;51.690;9.562;2023-11-21T00:24:36;98675.97;;;5.36;100.00
57708;BME280;43540;51.690;9.562;2023-11-21T00:27:03;98683.81;;;5.47;100.00
57708;BME280;43540;51.690;9.562;2023-11-21T00:29:30;98679.09;;;5.41;100.00
57708;BME280;43540;51.690;9.562;2023-11-21T00:31:57;98686.47;;;5.34;100.00
57708;BME280;43540;51.690;9.562;2023-11-21T00:34:24;98690.72;;;5.35;100.00
57708;BME280;43540;51.690;9.562;2023-11-21T00:36:55;98689.69;;;5.38;100.00
57708;BME280;43540;51.690;9.562;2023-11-21T00:39:21;98677.16;;;5.19;100.00
57708;BME280;43540;51.690;9.562;2023-11-21T00:41:48;98687.13;;;5.25;100.00
57708;BME280;43540;51.690;9.562;2023-11-21T00:44:15;98690.72;;;5.35;100.00
57708;BME280;43540;51.690;9.562;2023-11-21T00:46:42;98680.84;;;5.40;100.00
57708;BME280;43540;51.690;9.562;2023-11-21T00:49:09;98691.72;;;5.46;100.00
57708;BME280;43540;51.690;9.562;2023-11-21T00:51:36;98676.50;;;5.28;100.00
57708;BME280;43540;51.690;9.562;2023-11-21T00:54:03;98693.03;;;5.40;100.00
57708;BME280;43540;51.690;9.562;2023-11-21T00:56:29;98686.69;;;5.55;100.00
57708;BME280;43540;51.690;9.562;2023-11-21T00:58:56;98696.38;;;5.53;100.00
57708;BME280;43540;51.690;9.562;2023-11-21T01:01:22;98700.34;;;5.59;100.00
57708;BME280;43540;51.690;9.562;2023-11-21T01:03:51;98701.63;;;5.64;100.00
57708;BME280;43540;51.690;9.562;2023-11-21T01:06:17;98708.88;;;5.72;100.00
57708;BME280;43540;51.690;9.562;2023-11-21T01:08:44;98705.03;;;5.54;100.00
57708;BME280;43540;51.690;9.562;2023-11-21T01:11:11;98697.91;;;5.68;100.00
57708;BME280;43540;51.690;9.562;2023-11-21T01:13:41;98702.06;;;5.82;100.00
57708;BME280;43540;51.690;9.562;2023-11-21T01:16:09;98700.38;;;5.70;100.00
57708;BME280;43540;51.690;9.562;2023-11-21T01:18:36;98697.38;;;5.87;100.00
57708;BME280;43540;51.690;9.562;2023-11-21T01:21:03;98704.03;;;5.91;100.00
57708;BME280;43540;51.690;9.562;2023-11-21T01:23:30;98710.34;;;5.76;100.00
57708;BME280;43540;51.690;9.562;2023-11-21T01:25:57;98698.91;;;5.90;100.00
57708;BME280;43540;51.690;9.562;2023-11-21T01:28:23;98709.75;;;5.96;100.00
57708;BME280;43540;51.690;9.562;2023-11-21T01:30:50;98701.44;;;5.91;100.00
57708;BME280;43540;51.690;9.562;2023-11-21T01:33:17;98718.06;;;5.89;100.00
57708;BME280;43540;51.690;9.562;2023-11-21T01:35:45;98710.00;;;6.05;100.00
57708;BME280;43540;51.690;9.562;2023-11-21T01:38:13;98722.44;;;6.12;100.00
57708;BME280;43540;51.690;9.562;2023-11-21T01:40:40;98725.91;;;6.13;100.00
57708;BME280;43540;51.690;9.562;2023-11-21T01:43:07;98721.03;;;6.19;100.00
57708;BME280;43540;51.690;9.562;2023-11-21T01:45:35;98726.72;;;6.13;100.00
57708;BME280;43540;51.690;9.562;2023-11-21T01:48:02;98729.38;;;6.01;100.00
57708;BME280;43540;51.690;9.562;2023-11-21T01:50:30;98728.31;;;6.03;100.00
57708;BME280;43540;51.690;9.562;2023-11-21T01:53:05;98731.97;;;6.01;100.00
57708;BME280;43540;51.690;9.562;2023-11-21T01:55:36;98747.59;;;6.01;100.00
57708;BME280;43540;51.690;9.562;2023-11-21T01:58:03;98742.28;;;6.02;100.00
57708;BME280;43540;51.690;9.562;2023-11-21T02:00:30;98744.19;;;6.11;100.00
57708;BME280;43540;51.690;9.562;2023-11-21T02:02:57;98732.75;;;6.14;100.00
57708;BME280;43540;51.690;9.562;2023-11-21T02:05:29;98745.97;;;6.11;100.00
57708;BME280;43540;51.690;9.562;2023-11-21T02:07:56;98740.56;;;6.14;100.00
57708;BME280;43540;51.690;9.562;2023-11-21T02:10:23;98738.53;;;6.06;100.00
57708;BME280;43540;51.690;9.562;2023-11-21T02:12:51;98728.50;;;6.13;100.00
57708;BME280;43540;51.690;9.562;2023-11-21T02:15:18;98737.19;;;6.01;100.00
57708;BME280;43540;51.690;9.562;2023-11-21T02:17:50;98737.22;;;6.12;100.00
57708;BME280;43540;51.690;9.562;2023-11-21T02:20:22;98731.81;;;6.15;100.00
57708;BME280;43540;51.690;9.562;2023-11-21T02:22:53;98738.06;;;6.12;100.00
57708;BME280;43540;51.690;9.562;2023-11-21T02:25:28;98732.16;;;5.86;100.00
57708;BME280;43540;51.690;9.562;2023-11-21T02:27:56;98732.13;;;6.10;100.00
57708;BME280;43540;51.690;9.562;2023-11-21T02:30:24;98727.66;;;6.12;100.00
57708;BME280;43540;51.690;9.562;2023-11-21T02:32:51;98728.50;;;6.13;100.00
57708;BME280;43540;51.690;9.562;2023-11-21T02:35:21;98736.88;;;6.05;100.00
57708;BME280;43540;51.690;9.562;2023-11-21T02:37:48;98723.31;;;6.24;100.00
57708;BME280;43540;51.690;9.562;2023-11-21T02:40:16;98735.66;;;6.33;100.00
57708;BME280;43540;51.690;9.562;2023-11-21T02:42:47;98734.72;;;6.34;100.00
57708;BME280;43540;51.690;9.562;2023-11-21T02:45:15;98734.25;;;6.40;100.00
57708;BME280;43540;51.690;9.562;2023-11-21T02:47:45;98743.19;;;6.25;100.00
57708;BME280;43540;51.690;9.562;2023-11-21T02:50:12;98739.66;;;6.26;100.00
57708;BME280;43540;51.690;9.562;2023-11-21T02:52:39;98733.75;;;6.35;100.00
57708;BME280;43540;51.690;9.562;2023-11-21T02:55:09;98710.75;;;6.18;100.00
57708;BME280;43540;51.690;9.562;2023-11-21T02:57:39;98741.31;;;6.27;100.00
57708;BME280;43540;51.690;9.562;2023-11-21T03:00:06;98741.44;;;6.37;100.00
57708;BME280;43540;51.690;9.562;2023-11-21T03:02:42;98738.97;;;6.35;100.00
57708;BME280;43540;51.690;9.562;2023-11-21T03:05:10;98739.47;;;6.40;100.00
57708;BME280;43540;51.690;9.562;2023-11-21T03:07:37;98745.00;;;6.01;100.00
57708;BME280;43540;51.690;9.562;2023-11-21T03:10:06;98742.38;;;6.24;100.00
57708;BME280;43540;51.690;9.562;2023-11-21T03:12:37;98743.66;;;6.30;100.00
57708;BME280;43540;51.690;9.562;2023-11-21T03:15:12;98749.72;;;6.31;100.00
57708;BME280;43540;51.690;9.562;2023-11-21T03:17:39;98751.00;;;6.25;100.00
57708;BME280;43540;51.690;9.562;2023-11-21T03:20:07;98758.09;;;6.23;100.00
57708;BME280;43540;51.690;9.562;2023-11-21T03:22:37;98769.78;;;6.17;100.00
57708;BME280;43540;51.690;9.562;2023-11-21T03:25:06;98764.69;;;6.16;100.00
57708;BME280;43540;51.690;9.562;2023-11-21T03:27:32;98764.06;;;6.12;100.00
57708;BME280;43540;51.690;9.562;2023-11-21T03:29:59;98771.97;;;5.99;100.00
57708;BME280;43540;51.690;9.562;2023-11-21T03:32:26;98773.84;;;5.97;100.00
57708;BME280;43540;51.690;9.562;2023-11-21T03:34:57;98773.38;;;5.80;100.00
57708;BME280;43540;51.690;9.562;2023-11-21T03:37:25;98778.97;;;5.86;100.00
57708;BME280;43540;51.690;9.562;2023-11-21T03:39:55;98774.31;;;5.79;100.00
57708;BME280;43540;51.690;9.562;2023-11-21T03:42:22;98786.38;;;5.80;100.00
57708;BME280;43540;51.690;9.562;2023-11-21T03:44:50;98787.19;;;5.80;100.00
57708;BME280;43540;51.690;9.562;2023-11-21T03:47:16;98786.50;;;5.78;100.00
57708;BME280;43540;51.690;9.562;2023-11-21T03:49:49;98786.59;;;5.77;100.00
57708;BME280;43540;51.690;9.562;2023-11-21T03:52:16;98791.88;;;5.75;100.00
57708;BME280;43540;51.690;9.562;2023-11-21T03:54:43;98788.81;;;5.70;100.00
57708;BME280;43540;51.690;9.562;2023-11-21T03:57:10;98794.84;;;5.70;100.00
57708;BME280;43540;51.690;9.562;2023-11-21T03:59:41;98793.78;;;5.73;100.00
57708;BME280;43540;51.690;9.562;2023-11-21T04:02:08;98792.72;;;5.76;100.00
57708;BME280;43540;51.690;9.562;2023-11-21T04:04:36;98785.25;;;5.71;100.00
57708;BME280;43540;51.690;9.562;2023-11-21T04:07:03;98790.88;;;5.78;100.00
57708;BME280;43540;51.690;9.562;2023-11-21T04:09:31;98778.81;;;5.77;100.00
57708;BME280;43540;51.690;9.562;2023-11-21T04:11:57;98802.59;;;5.83;100.00
57708;BME280;43540;51.690;9.562;2023-11-21T04:14:24;98800.09;;;5.58;100.00
57708;BME280;43540;51.690;9.562;2023-11-21T04:16:51;98810.25;;;5.61;100.00
57708;BME280;43540;51.690;9.562;2023-11-21T04:19:18;98807.88;;;5.58;100.00
57708;BME280;43540;51.690;9.562;2023-11-21T04:21:45;98808.19;;;5.53;100.00
57708;BME280;43540;51.690;9.562;2023-11-21T04:24:12;98811.97;;;5.49;100.00
57708;BME280;43540;51.690;9.562;2023-11-21T04:26:39;98815.09;;;5.41;100.00
57708;BME280;43540;51.690;9.562;2023-11-21T04:29:05;98814.75;;;5.46;100.00
57708;BME280;43540;51.690;9.562;2023-11-21T04:31:32;98819.00;;;5.47;100.00
57708;BME280;43540;51.690;9.562;2023-11-21T04:33:59;98824.84;;;5.51;100.00
57708;BME280;43540;51.690;9.562;2023-11-21T04:36:26;98825.16;;;5.46;100.00
57708;BME280;43540;51.690;9.562;2023-11-21T04:38:53;98820.06;;;5.45;100.00
57708;BME280;43540;51.690;9.562;2023-11-21T04:41:19;98832.03;;;5.34;100.00
57708;BME280;43540;51.690;9.562;2023-11-21T04:43:46;98840.69;;;5.22;100.00
57708;BME280;43540;51.690;9.562;2023-11-21T04:46:13;98836.28;;;4.84;100.00
57708;BME280;43540;51.690;9.562;2023-11-21T04:48:40;98840.47;;;5.00;100.00
57708;BME280;43540;51.690;9.562;2023-11-21T04:51:07;98833.81;;;5.08;100.00
57708;BME280;43540;51.690;9.562;2023-11-21T04:53:37;98830.81;;;5.14;100.00
57708;BME280;43540;51.690;9.562;2023-11-21T04:56:06;98839.53;;;5.26;100.00
57708;BME280;43540;51.690;9.562;2023-11-21T04:58:33;98843.06;;;5.25;100.00
57708;BME280;43540;51.690;9.562;2023-11-21T05:01:00;98851.88;;;4.84;100.00
57708;BME280;43540;51.690;9.562;2023-11-21T05:03:27;98848.44;;;4.71;100.00
57708;BME280;43540;51.690;9.562;2023-11-21T05:06:00;98851.66;;;4.75;100.00
57708;BME280;43540;51.690;9.562;2023-11-21T05:08:26;98853.63;;;4.71;100.00
57708;BME280;43540;51.690;9.562;2023-11-21T05:10:53;98859.03;;;4.81;100.00
57708;BME280;43540;51.690;9.562;2023-11-21T05:13:20;98864.84;;;4.84;100.00
57708;BME280;43540;51.690;9.562;2023-11-21T05:15:49;98868.09;;;5.01;100.00
57708;BME280;43540;51.690;9.562;2023-11-21T05:18:16;98868.94;;;5.14;100.00
57708;BME280;43540;51.690;9.562;2023-11-21T05:20:45;98868.53;;;5.33;100.00
57708;BME280;43540;51.690;9.562;2023-11-21T05:23:14;98876.94;;;5.49;100.00
57708;BME280;43540;51.690;9.562;2023-11-21T05:25:40;98875.97;;;5.63;100.00
57708;BME280;43540;51.690;9.562;2023-11-21T05:28:08;98871.53;;;5.52;100.00
57708;BME280;43540;51.690;9.562;2023-11-21T05:30:34;98865.50;;;5.52;100.00
57708;BME280;43540;51.690;9.562;2023-11-21T05:33:01;98883.91;;;5.61;100.00
57708;BME280;43540;51.690;9.562;2023-11-21T05:35:36;98889.69;;;5.65;100.00
57708;BME280;43540;51.690;9.562;2023-11-21T05:38:03;98879.53;;;5.62;100.00
57708;BME280;43540;51.690;9.562;2023-11-21T05:40:31;98883.97;;;5.72;100.00
57708;BME280;43540;51.690;9.562;2023-11-21T05:42:58;98879.41;;;5.76;100.00
57708;BME280;43540;51.690;9.562;2023-11-21T05:45:25;98887.47;;;5.84;100.00
57708;BME280;43540;51.690;9.562;2023-11-21T05:47:52;98896.13;;;5.85;100.00
57708;BME280;43540;51.690;9.562;2023-11-21T05:50:19;98894.16;;;5.88;100.00
57708;BME280;43540;51.690;9.562;2023-11-21T05:52:47;98892.78;;;5.83;100.00
57708;BME280;43540;51.690;9.562;2023-11-21T05:55:17;98893.44;;;5.86;100.00
57708;BME280;43540;51.690;9.562;2023-11-21T05:57:51;98885.81;;;5.83;100.00
57708;BME280;43540;51.690;9.562;2023-11-21T06:00:18;98896.34;;;5.94;100.00
57708;BME280;43540;51.690;9.562;2023-11-21T06:02:48;98904.44;;;6.03;100.00
57708;BME280;43540;51.690;9.562;2023-11-21T06:05:23;98894.78;;;6.05;100.00
57708;BME280;43540;51.690;9.562;2023-11-21T06:07:54;98902.88;;;6.00;100.00
57708;BME280;43540;51.690;9.562;2023-11-21T06:10:24;98909.75;;;5.76;100.00
57708;BME280;43540;51.690;9.562;2023-11-21T06:12:52;98903.13;;;5.71;100.00
57708;BME280;43540;51.690;9.562;2023-11-21T06:15:19;98907.72;;;5.68;100.00
57708;BME280;43540;51.690;9.562;2023-11-21T06:17:51;98902.59;;;5.66;100.00
57708;BME280;43540;51.690;9.562;2023-11-21T06:20:21;98911.72;;;5.85;100.00
57708;BME280;43540;51.690;9.562;2023-11-21T06:22:50;98914.78;;;5.91;100.00
57708;BME280;43540;51.690;9.562;2023-11-21T06:25:17;98919.44;;;5.99;100.00
57708;BME280;43540;51.690;9.562;2023-11-21T06:27:46;98918.72;;;5.97;100.00
57708;BME280;43540;51.690;9.562;2023-11-21T06:30:14;98917.56;;;6.01;100.00
57708;BME280;43540;51.690;9.562;2023-11-21T06:32:43;98924.00;;;6.08;100.00
57708;BME280;43540;51.690;9.562;2023-11-21T06:35:16;98926.59;;;6.08;100.00
57708;BME280;43540;51.690;9.562;2023-11-21T06:37:44;98927.78;;;6.04;100.00
57708;BME280;43540;51.690;9.562;2023-11-21T06:40:15;98934.09;;;6.13;100.00
57708;BME280;43540;51.690;9.562;2023-11-21T06:42:42;98935.56;;;6.04;100.00
57708;BME280;43540;51.690;9.562;2023-11-21T06:45:10;98936.41;;;6.05;100.00
57708;BME280;43540;51.690;9.562;2023-11-21T06:47:40;98931.31;;;5.90;100.00
57708;BME280;43540;51.690;9.562;2023-11-21T06:50:07;98942.94;;;5.85;100.00
57708;BME280;43540;51.690;9.562;2023-11-21T06:52:34;98943.28;;;5.80;100.00
57708;BME280;43540;51.690;9.562;2023-11-21T06:55:01;98944.22;;;5.79;100.00
57708;BME280;43540;51.690;9.562;2023-11-21T06:57:27;98946.41;;;5.72;100.00
57708;BME280;43540;51.690;9.562;2023-11-21T06:59:54;98954.50;;;5.93;100.00
57708;BME280;43540;51.690;9.562;2023-11-21T07:02:23;98954.09;;;5.87;100.00
57708;BME280;43540;51.690;9.562;2023-11-21T07:04:55;98960.53;;;5.94;100.00
57708;BME280;43540;51.690;9.562;2023-11-21T07:07:22;98952.50;;;5.84;100.00
57708;BME280;43540;51.690;9.562;2023-11-21T07:09:49;98958.88;;;5.93;100.00
57708;BME280;43540;51.690;9.562;2023-11-21T07:12:16;98942.03;;;5.73;100.00
57708;BME280;43540;51.690;9.562;2023-11-21T07:14:43;98975.13;;;5.96;100.00
57708;BME280;43540;51.690;9.562;2023-11-21T07:17:23;98980.00;;;6.01;100.00
57708;BME280;43540;51.690;9.562;2023-11-21T07:20:12;98974.59;;;5.91;100.00
57708;BME280;43540;51.690;9.562;2023-11-21T07:22:41;98982.50;;;6.03;100.00
57708;BME280;43540;51.690;9.562;2023-11-21T07:25:08;98985.22;;;6.14;100.00
57708;BME280;43540;51.690;9.562;2023-11-21T07:27:36;98985.69;;;6.19;100.00
57708;BME280;43540;51.690;9.562;2023-11-21T07:30:04;98993.81;;;6.27;100.00
57708;BME280;43540;51.690;9.562;2023-11-21T07:32:32;98991.03;;;6.17;100.00
57708;BME280;43540;51.690;9.562;2023-11-21T07:34:59;98998.53;;;6.22;100.00
57708;BME280;43540;51.690;9.562;2023-11-21T07:37:27;98995.63;;;6.14;100.00
57708;BME280;43540;51.690;9.562;2023-11-21T07:39:55;98987.81;;;6.14;100.00
57708;BME280;43540;51.690;9.562;2023-11-21T07:42:23;99000.50;;;6.18;100.00
57708;BME280;43540;51.690;9.562;2023-11-21T07:44:52;99002.47;;;6.15;100.00
57708;BME280;43540;51.690;9.562;2023-11-21T07:47:19;99017.66;;;6.21;100.00
57708;BME280;43540;51.690;9.562;2023-11-21T07:49:46;99002.59;;;6.13;100.00
57708;BME280;43540;51.690;9.562;2023-11-21T07:52:13;99008.50;;;6.28;100.00
57708;BME280;43540;51.690;9.562;2023-11-21T07:54:42;99018.28;;;6.24;100.00
57708;BME280;43540;51.690;9.562;2023-11-21T07:57:09;99017.38;;;6.13;100.00
57708;BME280;43540;51.690;9.562;2023-11-21T07:59:43;99009.97;;;6.19;100.00
57708;BME280;43540;51.690;9.562;2023-11-21T08:02:09;99022.13;;;6.32;100.00
57708;BME280;43540;51.690;9.562;2023-11-21T08:04:36;99024.94;;;6.41;100.00
57708;BME280;43540;51.690;9.562;2023-11-21T08:07:03;99029.31;;;6.28;100.00
57708;BME280;43540;51.690;9.562;2023-11-21T08:09:30;99036.28;;;6.27;100.00
57708;BME280;43540;51.690;9.562;2023-11-21T08:11:57;99029.94;;;6.32;100.00
57708;BME280;43540;51.690;9.562;2023-11-21T08:14:24;99038.91;;;6.40;100.00
57708;BME280;43540;51.690;9.562;2023-11-21T08:16:53;99034.78;;;6.49;100.00
57708;BME280;43540;51.690;9.562;2023-11-21T08:19:24;99037.19;;;6.52;100.00
57708;BME280;43540;51.690;9.562;2023-11-21T08:21:54;99040.31;;;6.44;100.00
57708;BME280;43540;51.690;9.562;2023-11-21T08:24:21;99039.72;;;6.41;100.00
57708;BME280;43540;51.690;9.562;2023-11-21T08:26:48;99049.31;;;6.40;100.00
57708;BME280;43540;51.690;9.562;2023-11-21T08:29:16;99054.13;;;6.57;100.00
57708;BME280;43540;51.690;9.562;2023-11-21T08:31:43;99055.66;;;6.73;100.00
57708;BME280;43540;51.690;9.562;2023-11-21T08:34:13;99065.56;;;6.80;100.00
57708;BME280;43540;51.690;9.562;2023-11-21T08:36:45;99056.19;;;6.78;100.00
57708;BME280;43540;51.690;9.562;2023-11-21T08:39:12;99047.31;;;6.80;100.00
57708;BME280;43540;51.690;9.562;2023-11-21T08:41:39;99060.09;;;6.96;100.00
57708;BME280;43540;51.690;9.562;2023-11-21T08:44:06;99065.06;;;6.99;100.00
57708;BME280;43540;51.690;9.562;2023-11-21T08:46:34;99065.66;;;7.03;100.00
57708;BME280;43540;51.690;9.562;2023-11-21T08:49:01;99076.00;;;7.04;100.00
57708;BME280;43540;51.690;9.562;2023-11-21T08:51:28;99063.16;;;7.01;100.00
57708;BME280;43540;51.690;9.562;2023-11-21T08:53:54;99063.59;;;6.71;100.00
57708;BME280;43540;51.690;9.562;2023-11-21T08:56:25;99073.13;;;6.96;100.00
57708;BME280;43540;51.690;9.562;2023-11-21T08:58:52;99075.88;;;7.06;100.00
57708;BME280;43540;51.690;9.562;2023-11-21T09:01:19;99075.38;;;7.01;100.00
57708;BME280;43540;51.690;9.562;2023-11-21T09:03:46;99077.66;;;7.05;100.00
57708;BME280;43540;51.690;9.562;2023-11-21T09:06:13;99076.59;;;7.08;100.00
57708;BME280;43540;51.690;9.562;2023-11-21T09:08:40;99081.97;;;7.18;100.00
57708;BME280;43540;51.690;9.562;2023-11-21T09:11:08;99085.09;;;7.23;100.00
57708;BME280;43540;51.690;9.562;2023-11-21T09:13:35;99086.66;;;7.25;100.00
57708;BME280;43540;51.690;9.562;2023-11-21T09:16:11;99088.19;;;7.28;100.00
57708;BME280;43540;51.690;9.562;2023-11-21T09:18:38;99082.56;;;7.21;100.00
57708;BME280;43540;51.690;9.562;2023-11-21T09:21:05;99082.50;;;7.23;100.00
57708;BME280;43540;51.690;9.562;2023-11-21T09:23:32;99096.28;;;7.36;100.00
57708;BME280;43540;51.690;9.562;2023-11-21T09:25:59;99095.78;;;7.31;100.00
57708;BME280;43540;51.690;9.562;2023-11-21T09:28:27;99101.13;;;7.29;100.00
57708;BME280;43540;51.690;9.562;2023-11-21T09:30:54;99097.25;;;7.35;100.00
57708;BME280;43540;51.690;9.562;2023-11-21T09:33:20;99096.59;;;7.31;100.00
57708;BME280;43540;51.690;9.562;2023-11-21T09:35:49;99092.97;;;7.34;100.00
57708;BME280;43540;51.690;9.562;2023-11-21T09:38:17;99105.22;;;7.45;100.00
57708;BME280;43540;51.690;9.562;2023-11-21T09:40:44;99104.63;;;7.41;100.00
57708;BME280;43540;51.690;9.562;2023-11-21T09:43:17;99112.81;;;7.48;100.00
57708;BME280;43540;51.690;9.562;2023-11-21T09:45:55;99120.19;;;7.54;100.00
57708;BME280;43540;51.690;9.562;2023-11-21T09:48:24;99108.53;;;7.47;100.00
57708;BME280;43540;51.690;9.562;2023-11-21T09:50:53;99115.81;;;7.54;100.00
57708;BME280;43540;51.690;9.562;2023-11-21T09:53:21;99098.50;;;7.29;100.00
57708;BME280;43540;51.690;9.562;2023-11-21T09:55:51;99121.47;;;7.48;100.00
57708;BME280;43540;51.690;9.562;2023-11-21T09:58:19;99120.97;;;7.43;100.00
57708;BME280;43540;51.690;9.562;2023-11-21T10:00:49;99129.41;;;7.47;100.00
57708;BME280;43540;51.690;9.562;2023-11-21T10:03:16;99130.03;;;7.50;100.00
57708;BME280;43540;51.690;9.562;2023-11-21T10:05:44;99131.25;;;7.33;100.00
57708;BME280;43540;51.690;9.562;2023-11-21T10:08:15;99130.41;;;7.57;100.00
57708;BME280;43540;51.690;9.562;2023-11-21T10:10:46;99132.81;;;7.60;100.00
57708;BME280;43540;51.690;9.562;2023-11-21T10:13:17;99123.69;;;7.65;100.00
57708;BME280;43540;51.690;9.562;2023-11-21T10:15:52;99131.22;;;7.57;100.00
57708;BME280;43540;51.690;9.562;2023-11-21T10:18:20;99136.31;;;7.59;100.00
57708;BME280;43540;51.690;9.562;2023-11-21T10:20:49;99139.59;;;7.74;100.00
57708;BME280;43540;51.690;9.562;2023-11-21T10:23:21;99136.16;;;7.73;100.00
57708;BME280;43540;51.690;9.562;2023-11-21T10:25:50;99143.38;;;7.69;100.00
57708;BME280;43540;51.690;9.562;2023-11-21T10:28:18;99142.47;;;7.82;100.00
57708;BME280;43540;51.690;9.562;2023-11-21T10:30:45;99131.59;;;7.88;100.00
57708;BME280;43540;51.690;9.562;2023-11-21T10:33:13;99151.41;;;7.90;100.00
57708;BME280;43540;51.690;9.562;2023-11-21T10:35:46;99147.84;;;7.91;100.00
57708;BME280;43540;51.690;9.562;2023-11-21T10:38:17;99151.03;;;7.95;100.00
57708;BME280;43540;51.690;9.562;2023-11-21T10:40:44;99143.97;;;8.08;100.00
57708;BME280;43540;51.690;9.562;2023-11-21T10:43:13;99147.03;;;8.02;100.00
57708;BME280;43540;51.690;9.562;2023-11-21T10:45:42;99144.81;;;8.09;100.00
57708;BME280;43540;51.690;9.562;2023-11-21T10:48:11;99149.22;;;8.19;100.00
57708;BME280;43540;51.690;9.562;2023-11-21T10:50:46;99146.84;;;8.16;100.00
57708;BME280;43540;51.690;9.562;2023-11-21T10:53:13;99152.06;;;8.16;100.00
57708;BME280;43540;51.690;9.562;2023-11-21T10:55:42;99147.81;;;8.26;100.00
57708;BME280;43540;51.690;9.562;2023-11-21T10:58:13;99156.72;;;8.24;100.00
57708;BME280;43540;51.690;9.562;2023-11-21T11:00:40;99166.13;;;8.38;100.00
57708;BME280;43540;51.690;9.562;2023-11-21T11:03:08;99157.06;;;8.19;100.00
57708;BME280;43540;51.690;9.562;2023-11-21T11:05:44;99172.56;;;8.10;100.00
57708;BME280;43540;51.690;9.562;2023-11-21T11:08:21;99178.38;;;8.02;100.00
57708;BME280;43540;51.690;9.562;2023-11-21T11:10:54;99186.41;;;8.23;100.00
57708;BME280;43540;51.690;9.562;2023-11-21T11:13:21;99182.31;;;8.08;100.00
57708;BME280;43540;51.690;9.562;2023-11-21T11:15:49;99180.97;;;8.02;100.00
57708;BME280;43540;51.690;9.562;2023-11-21T11:18:16;99182.00;;;7.88;100.00
57708;BME280;43540;51.690;9.562;2023-11-21T11:30:11;99185.34;;;7.90;100.00
57708;BME280;43540;51.690;9.562;2023-11-21T11:35:53;99199.50;;;8.10;100.00
57708;BME280;43540;51.690;9.562;2023-11-21T11:38:23;99206.03;;;8.05;100.00
57708;BME280;43540;51.690;9.562;2023-11-21T11:40:53;99212.09;;;8.05;100.00
57708;BME280;43540;51.690;9.562;2023-11-21T11:43:26;99214.56;;;7.95;100.00
57708;BME280;43540;51.690;9.562;2023-11-21T11:45:57;99213.78;;;7.82;100.00
57708;BME280;43540;51.690;9.562;2023-11-21T11:48:25;99219.06;;;7.69;100.00
57708;BME280;43540;51.690;9.562;2023-11-21T11:51:12;99222.16;;;7.75;100.00
57708;BME280;43540;51.690;9.562;2023-11-21T11:53:42;99222.97;;;7.75;100.00
57708;BME280;43540;51.690;9.562;2023-11-21T11:56:24;99220.31;;;7.64;100.00
57708;BME280;43540;51.690;9.562;2023-11-21T11:58:55;99223.09;;;7.74;100.00
57708;BME280;43540;51.690;9.562;2023-11-21T12:01:24;99223.66;;;7.29;100.00
57708;BME280;43540;51.690;9.562;2023-11-21T12:06:36;99231.06;;;7.35;100.00
57708;BME280;43540;51.690;9.562;2023-11-21T12:09:03;99232.22;;;7.31;100.00
57708;BME280;43540;51.690;9.562;2023-11-21T12:11:32;99249.50;;;6.96;100.00
57708;BME280;43540;51.690;9.562;2023-11-21T12:14:01;99247.09;;;6.93;100.00
57708;BME280;43540;51.690;9.562;2023-11-21T12:16:32;99246.38;;;6.78;100.00
57708;BME280;43540;51.690;9.562;2023-11-21T12:18:59;99257.13;;;6.86;100.00
57708;BME280;43540;51.690;9.562;2023-11-21T12:21:25;99260.13;;;7.05;100.00
57708;BME280;43540;51.690;9.562;2023-11-21T12:23:53;99260.69;;;7.22;100.00
57708;BME280;43540;51.690;9.562;2023-11-21T12:26:23;99266.09;;;7.31;100.00
57708;BME280;43540;51.690;9.562;2023-11-21T12:28:53;99276.16;;;7.25;100.00
57708;BME280;43540;51.690;9.562;2023-11-21T12:31:23;99277.75;;;7.15;100.00
57708;BME280;43540;51.690;9.562;2023-11-21T12:33:51;99290.84;;;7.26;100.00
57708;BME280;43540;51.690;9.562;2023-11-21T12:36:17;99298.53;;;7.40;100.00
57708;BME280;43540;51.690;9.562;2023-11-21T12:38:44;99301.38;;;7.11;100.00
57708;BME280;43540;51.690;9.562;2023-11-21T12:41:13;99310.56;;;6.92;100.00
57708;BME280;43540;51.690;9.562;2023-11-21T12:43:41;99313.72;;;6.97;100.00
57708;BME280;43540;51.690;9.562;2023-11-21T12:46:10;99310.59;;;7.04;100.00
57708;BME280;43540;51.690;9.562;2023-11-21T12:48:37;99311.81;;;7.11;100.00
57708;BME280;43540;51.690;9.562;2023-11-21T12:51:05;99312.84;;;6.83;100.00
57708;BME280;43540;51.690;9.562;2023-11-21T12:53:33;99321.63;;;6.82;100.00
57708;BME280;43540;51.690;9.562;2023-11-21T12:56:09;99314.63;;;6.83;100.00
57708;BME280;43540;51.690;9.562;2023-11-21T12:58:39;99319.75;;;6.97;100.00
57708;BME280;43540;51.690;9.562;2023-11-21T13:01:06;99320.59;;;6.98;100.00
57708;BME280;43540;51.690;9.562;2023-11-21T13:03:59;99321.03;;;7.04;100.00
57708;BME280;43540;51.690;9.562;2023-11-21T13:06:25;99316.50;;;7.19;100.00
57708;BME280;43540;51.690;9.562;2023-11-21T13:08:54;99322.13;;;7.13;100.00
57708;BME280;43540;51.690;9.562;2023-11-21T13:11:21;99326.00;;;7.07;100.00
57708;BME280;43540;51.690;9.562;2023-11-21T13:13:51;99327.06;;;7.18;100.00
57708;BME280;43540;51.690;9.562;2023-11-21T13:16:18;99321.31;;;7.00;100.00
57708;BME280;43540;51.690;9.562;2023-11-21T13:18:48;99320.91;;;7.06;100.00
57708;BME280;43540;51.690;9.562;2023-11-21T13:21:15;99326.94;;;7.06;100.00
57708;BME280;43540;51.690;9.562;2023-11-21T13:23:43;99324.44;;;6.92;100.00